Overview Statistics Trail Chart Weather Telemetry Raw packets
 

This is the latest recevied telemetry packets stored in our database for station/object DO2KTE-99. If no packets are shown the sender has not sent any telemetry packets the latest 10 day(s).

Telemetry packets is used to share measurements like repeteater parameters, battery voltage, radiation readings (or any other measurements).

<< 1 2 3 4 >>
Time Press* Temp.in* Hum* QNH* Temp.out*
1788580327 991.5 hPa 21.6 C deg 43.4 % 1023.2 hPa 0 C deg
1788580287 991.5 hPa 21.6 C deg 43.4 % 1023.2 hPa 0 C deg
1788578457 991.2 hPa 22 C deg 43.3 % 1022.8 hPa 0 C deg
1788576636 991.1 hPa 22.5 C deg 43.1 % 1022.7 hPa 0 C deg
1788574819 990.9 hPa 22.9 C deg 42.9 % 1022.5 hPa 0 C deg
1788573005 990.3 hPa 22.9 C deg 42.8 % 1021.9 hPa 0 C deg
1788569455 990 hPa 23.4 C deg 42.5 % 1021.5 hPa 0 C deg
1788569398 990 hPa 23.4 C deg 42.5 % 1021.5 hPa 0 C deg
1788567695 989.8 hPa 23.8 C deg 42.2 % 1021.3 hPa 0 C deg
1788567611 989.8 hPa 23.8 C deg 42.2 % 1021.3 hPa 0 C deg
1788565754 989.6 hPa 24.2 C deg 41.9 % 1021 hPa 0 C deg
1788563937 989.5 hPa 24.6 C deg 41.7 % 1020.8 hPa 0 C deg
1788562130 989.8 hPa 24.9 C deg 41.5 % 1021.1 hPa 0 C deg
1788560301 989.4 hPa 25.2 C deg 41.2 % 1020.7 hPa 0 C deg
1788558744 989.2 hPa 25.4 C deg 41.2 % 1020.5 hPa 0 C deg
1788558485 989.2 hPa 25.4 C deg 41.2 % 1020.5 hPa 0 C deg
1788556690 988.8 hPa 26.3 C deg 40.8 % 1020 hPa 0 C deg
1788555144 988.5 hPa 26.7 C deg 40.4 % 1019.6 hPa 0 C deg
1788553326 987.8 hPa 27.1 C deg 40.3 % 1018.9 hPa 0 C deg
1788553062 987.8 hPa 27.1 C deg 40.3 % 1018.9 hPa 0 C deg
1788551572 987.4 hPa 28.2 C deg 39.7 % 1018.3 hPa 0 C deg
1788547685 986 hPa 30.8 C deg 38.5 % 1016.6 hPa 0 C deg
1788545802 984.6 hPa 31.6 C deg 38.2 % 1015.1 hPa 0 C deg
1788544018 984.3 hPa 32.2 C deg 38 % 1014.7 hPa 0 C deg
1788542207 984.1 hPa 32.8 C deg 38 % 1014.4 hPa 0 C deg
*Used Equation Coefficients:
Press: 0, 1, 0
Temp.in: 0, 1, 0
Hum: 0, 1, 0
QNH: 0, 1, 0
Temp.out: 0, 1, 0

  • The parameter names for the analog channels will be Value1, Value2, Value3 (up to Value5) if station has not sent a PARAM-packet that specifies the parameter names for each analog channel.
  • Each analog value is a decimal number between 000 and 255 (according to APRS specifications). The receiver use the telemetry equation coefficientsto to restore the original sensor values. If no EQNS-packet with equation coefficients is sent we will show the values as is (this corresponds to the equation coefficients a=0, b=1 and c=0).
    The sent equation coefficients is used in the equation: a * value2 + b * value + c.
  • The units for the analog values will not be shown if station has not sent a UNIT-packet specifying what unit's to use.
  • The parameter names for the digital bits will be Bit1, Bit2, Bit3 (up to Bit8) if station has not sent a PARAM-packet that specifies the parameter names for each digital bit.
  • All bit labels will be named "On" if station has not sent a UNIT-packet that specifies the label of each bit.
  • A bit is considered to be On when the bit is 1 if station has not sent a BITS-packet that specifies another "Bit sense" (a BITS-packet specify the state of the bits that match the BIT labels)